createdAt,value
2017-09-30T11:47:28.576Z,51.96
2017-09-30T11:49:57.535Z,53.78
2017-09-30T11:52:26.195Z,54.13
2017-09-30T11:54:54.776Z,52.50
2017-09-30T11:57:24.023Z,53.29
2017-09-30T11:59:53.222Z,52.21
2017-09-30T12:02:22.309Z,52.35
2017-09-30T12:04:50.937Z,52.91
2017-09-30T12:07:19.803Z,53.41
2017-09-30T12:09:48.461Z,53.12
2017-09-30T12:12:16.980Z,52.37
2017-09-30T12:14:45.568Z,52.85
2017-09-30T12:17:14.073Z,52.53
2017-09-30T12:19:45.571Z,53.02
2017-09-30T12:22:29.319Z,53.02
2017-09-30T12:24:57.939Z,53.58
2017-09-30T12:27:27.833Z,53.43
2017-09-30T12:29:56.587Z,52.89
2017-09-30T12:32:25.094Z,52.12
2017-09-30T12:34:53.628Z,52.75
2017-09-30T12:37:22.496Z,51.88
2017-09-30T12:39:51.989Z,51.37
2017-09-30T12:42:21.770Z,51.52
2017-09-30T12:44:51.200Z,49.72
2017-09-30T12:47:20.007Z,49.49
2017-09-30T12:49:48.506Z,48.64
2017-09-30T12:52:17.161Z,49.95
2017-09-30T12:54:45.764Z,50.77
2017-09-30T12:57:14.347Z,51.16
2017-09-30T12:59:43.035Z,51.67
2017-09-30T13:02:11.704Z,51.23
2017-09-30T13:04:41.654Z,51.68
2017-09-30T13:07:10.251Z,51.57
2017-09-30T13:09:42.310Z,52.36
2017-09-30T13:12:11.506Z,51.70
2017-09-30T13:14:40.173Z,50.98
2017-09-30T13:17:12.743Z,49.68
2017-09-30T13:19:41.990Z,50.75
2017-09-30T13:22:13.629Z,51.04
2017-09-30T13:24:43.704Z,51.36
2017-09-30T13:27:12.690Z,50.79
2017-09-30T13:29:41.423Z,51.27
2017-09-30T13:32:11.585Z,51.09
2017-09-30T13:34:41.404Z,50.44
2017-09-30T13:37:10.688Z,51.70
2017-09-30T13:39:39.505Z,51.36
2017-09-30T13:42:08.526Z,50.99
2017-09-30T13:44:37.115Z,50.64
2017-09-30T13:47:05.727Z,51.04
2017-09-30T13:49:34.324Z,50.90
2017-09-30T13:52:02.898Z,50.97
2017-09-30T13:54:31.521Z,50.87
2017-09-30T13:57:00.049Z,49.88
2017-09-30T13:59:28.725Z,50.45
2017-09-30T14:01:57.342Z,50.94
2017-09-30T14:04:25.842Z,50.83
2017-09-30T14:06:54.468Z,50.04
2017-09-30T14:09:22.927Z,49.28
2017-09-30T14:11:51.472Z,49.35
2017-09-30T14:14:19.990Z,48.65
2017-09-30T14:16:48.519Z,47.76
2017-09-30T14:19:16.996Z,48.48
2017-09-30T14:21:45.568Z,48.74
2017-09-30T14:24:14.106Z,48.48
2017-09-30T14:26:42.899Z,48.62
2017-09-30T14:29:11.618Z,49.29
2017-09-30T14:31:40.626Z,48.08
2017-09-30T14:34:09.149Z,48.02
2017-09-30T14:36:37.860Z,47.15
2017-09-30T14:39:06.390Z,48.55
2017-09-30T14:41:34.900Z,49.07
2017-09-30T14:44:03.495Z,48.71
2017-09-30T14:46:32.065Z,49.07
2017-09-30T14:49:00.697Z,48.45
2017-09-30T14:51:29.279Z,48.31
2017-09-30T14:53:57.763Z,48.30
2017-09-30T14:56:26.235Z,48.43
2017-09-30T14:58:54.712Z,47.62
2017-09-30T15:01:23.505Z,48.40
2017-09-30T15:03:51.995Z,48.08
2017-09-30T15:06:20.590Z,47.92
2017-09-30T15:08:49.067Z,48.33
2017-09-30T15:11:17.541Z,47.86
2017-09-30T15:13:46.009Z,47.95
2017-09-30T15:16:14.604Z,48.99
2017-09-30T15:18:43.474Z,49.45
2017-09-30T15:21:12.624Z,49.80
2017-09-30T15:23:41.591Z,49.67
2017-09-30T15:26:10.700Z,49.79
2017-09-30T15:28:39.530Z,49.71
2017-09-30T15:31:08.472Z,49.20
2017-09-30T15:33:38.218Z,48.06
2017-09-30T15:36:06.864Z,48.32
2017-09-30T15:38:36.051Z,50.34
2017-09-30T15:41:05.849Z,48.51
2017-09-30T15:43:34.840Z,48.52
2017-09-30T15:46:04.693Z,50.63
2017-09-30T15:48:34.575Z,50.88
2017-09-30T15:51:04.726Z,50.15
2017-09-30T15:53:34.142Z,50.24
2017-09-30T15:56:14.605Z,49.43
2017-09-30T15:58:47.204Z,47.85
2017-09-30T16:01:16.404Z,48.67
2017-09-30T16:03:45.348Z,49.08
2017-09-30T16:06:37.948Z,48.31
2017-09-30T16:09:06.655Z,48.70
2017-09-30T16:11:35.311Z,48.92
2017-09-30T16:14:05.049Z,48.82
2017-09-30T16:16:34.372Z,48.90
2017-09-30T16:19:03.530Z,48.36
2017-09-30T16:21:32.486Z,48.64
2017-09-30T16:24:01.242Z,49.43
2017-09-30T16:26:38.221Z,49.70
2017-09-30T16:29:07.557Z,49.06
2017-09-30T16:31:38.455Z,49.73
2017-09-30T16:34:07.526Z,49.72
2017-09-30T16:36:36.408Z,50.07
2017-09-30T16:39:05.308Z,50.62
2017-09-30T16:41:34.001Z,50.40
2017-09-30T16:44:03.811Z,51.08
2017-09-30T16:46:33.119Z,51.40
2017-09-30T16:49:01.812Z,52.24
2017-09-30T16:51:30.431Z,52.84
2017-09-30T16:53:59.219Z,53.46
2017-09-30T16:59:15.707Z,54.86
2017-09-30T17:01:48.713Z,55.09
2017-09-30T17:04:17.725Z,55.73
2017-09-30T17:06:47.164Z,55.93
2017-09-30T17:09:16.368Z,56.44
2017-09-30T17:11:49.934Z,56.55
2017-09-30T17:14:20.836Z,56.94
2017-09-30T17:16:52.107Z,57.69
2017-09-30T17:19:20.776Z,57.90
2017-09-30T17:21:49.571Z,57.46
2017-09-30T17:27:13.451Z,58.43
2017-09-30T17:29:42.356Z,58.57
2017-09-30T17:32:10.979Z,59.12
2017-09-30T17:34:39.617Z,59.36
2017-09-30T17:37:08.821Z,59.87
2017-09-30T17:42:28.700Z,60.15
2017-09-30T17:44:58.895Z,60.50
2017-09-30T17:47:27.708Z,60.74
2017-09-30T17:49:56.535Z,60.68
2017-09-30T17:52:25.407Z,61.18
2017-09-30T17:54:56.833Z,60.84
2017-09-30T17:57:38.021Z,61.46
2017-09-30T18:00:12.220Z,61.72
2017-09-30T18:02:42.660Z,61.72
2017-09-30T18:05:19.551Z,61.69
2017-09-30T18:07:48.588Z,61.49
2017-09-30T18:10:27.972Z,61.35
2017-09-30T18:13:10.678Z,61.51
2017-09-30T18:15:42.425Z,61.10
2017-09-30T18:18:11.928Z,61.04
2017-09-30T18:20:42.862Z,60.67
2017-09-30T18:23:15.820Z,60.52
2017-09-30T18:25:52.433Z,60.27
2017-09-30T18:28:31.783Z,61.15
2017-09-30T18:31:03.402Z,60.29
2017-09-30T18:33:32.175Z,60.21
2017-09-30T18:36:01.592Z,60.19
2017-09-30T18:38:34.542Z,60.51
2017-09-30T18:41:03.564Z,60.75
2017-09-30T18:43:32.664Z,60.51
2017-09-30T18:46:04.881Z,60.76
2017-09-30T18:48:33.739Z,60.75
2017-09-30T18:51:02.407Z,60.84
2017-09-30T18:53:30.952Z,60.30
2017-09-30T18:56:07.869Z,60.43
2017-09-30T18:58:42.207Z,60.54
2017-09-30T19:01:20.222Z,60.72
2017-09-30T19:03:52.708Z,60.77
2017-09-30T19:06:22.227Z,60.30
2017-09-30T19:08:50.767Z,60.29
2017-09-30T19:11:19.816Z,61.42
2017-09-30T19:13:48.300Z,61.43
2017-09-30T19:16:17.242Z,61.87
2017-09-30T19:18:46.191Z,64.02
2017-09-30T19:21:15.576Z,62.64
2017-09-30T19:23:44.076Z,65.02
2017-09-30T19:26:12.694Z,63.44
2017-09-30T19:28:41.328Z,62.23
2017-09-30T19:31:09.914Z,64.04
2017-09-30T19:33:38.403Z,64.33
2017-09-30T19:36:07.045Z,62.89
2017-09-30T19:38:35.888Z,63.73
2017-09-30T19:41:04.805Z,63.73
2017-09-30T19:43:33.504Z,63.19
2017-09-30T19:46:02.124Z,62.47
2017-09-30T19:48:30.706Z,62.60
2017-09-30T19:50:59.328Z,65.42
2017-09-30T19:53:27.931Z,62.97
2017-09-30T19:55:56.704Z,62.72
2017-09-30T19:58:25.349Z,62.79
2017-09-30T20:01:45.988Z,65.14
2017-09-30T20:05:18.579Z,66.59
2017-09-30T20:08:03.808Z,64.28
2017-09-30T20:10:32.765Z,64.44
2017-09-30T20:13:02.448Z,63.77
2017-09-30T20:15:36.240Z,63.29
2017-09-30T20:21:22.528Z,62.60
2017-09-30T20:23:52.246Z,65.86
2017-09-30T20:26:22.578Z,64.05
2017-09-30T20:28:55.044Z,64.17
2017-09-30T20:31:25.188Z,63.18
2017-09-30T20:33:54.606Z,63.53
2017-09-30T20:36:29.621Z,62.87
2017-09-30T20:38:58.676Z,63.30
2017-09-30T20:41:28.739Z,63.21
2017-09-30T20:44:00.047Z,64.06
2017-09-30T20:46:41.453Z,65.64
2017-09-30T20:49:17.757Z,63.86
2017-09-30T21:08:41.059Z,64.04
2017-09-30T21:11:41.079Z,63.58
2017-09-30T21:14:09.887Z,64.11
2017-09-30T21:16:38.532Z,67.47
2017-09-30T21:19:07.081Z,63.39
2017-09-30T21:21:35.670Z,63.92
2017-09-30T21:24:04.153Z,65.63
2017-09-30T21:26:32.756Z,64.20
2017-09-30T21:29:01.963Z,64.22
2017-09-30T21:31:31.168Z,64.36
2017-09-30T21:33:59.722Z,64.68
2017-09-30T21:36:28.267Z,64.89
2017-09-30T21:38:57.309Z,64.81
2017-09-30T21:41:25.815Z,64.39
2017-09-30T21:43:54.324Z,64.10
2017-09-30T21:46:23.225Z,65.30
2017-09-30T21:48:51.757Z,64.45
2017-09-30T21:51:20.275Z,64.72
2017-09-30T21:53:48.817Z,66.38
2017-09-30T21:56:17.399Z,64.87
2017-09-30T21:58:46.747Z,65.12
2017-09-30T22:01:15.432Z,64.71
2017-09-30T22:03:44.055Z,65.38
2017-09-30T22:06:12.553Z,67.60
2017-09-30T22:08:41.024Z,66.20
2017-09-30T22:11:09.507Z,66.79
2017-09-30T22:13:38.019Z,66.13
2017-09-30T22:16:06.694Z,65.76
2017-09-30T22:18:35.365Z,65.92
2017-09-30T22:21:03.849Z,66.04
2017-09-30T22:23:32.370Z,65.35
2017-09-30T22:26:00.904Z,65.47
2017-09-30T22:28:29.476Z,65.32
2017-09-30T22:30:58.957Z,66.13
2017-09-30T22:33:27.627Z,65.59
2017-09-30T22:35:56.343Z,65.91
2017-09-30T22:38:25.035Z,65.91
2017-09-30T22:40:53.768Z,65.81
2017-09-30T22:43:22.757Z,65.86
2017-09-30T22:45:51.488Z,66.93
2017-09-30T22:48:20.283Z,68.24
2017-09-30T22:50:48.878Z,68.55
2017-09-30T22:53:17.400Z,66.02
2017-09-30T22:55:45.934Z,65.95
2017-09-30T22:58:14.419Z,66.78
2017-09-30T23:00:43.338Z,67.00
2017-09-30T23:03:12.072Z,66.10
2017-09-30T23:05:40.832Z,66.11
2017-09-30T23:08:09.381Z,65.80
2017-09-30T23:10:37.903Z,65.78
2017-09-30T23:13:06.500Z,65.53
2017-09-30T23:15:35.796Z,65.42
2017-09-30T23:18:04.504Z,66.47
2017-09-30T23:20:33.047Z,67.21
2017-09-30T23:23:01.561Z,66.45
2017-09-30T23:25:30.178Z,66.83
2017-09-30T23:27:58.662Z,66.19
2017-09-30T23:30:27.698Z,65.94
2017-09-30T23:32:56.324Z,67.02
2017-09-30T23:35:24.920Z,67.46
2017-09-30T23:37:53.504Z,66.65
2017-09-30T23:40:22.034Z,68.02
2017-09-30T23:42:53.567Z,66.25
2017-09-30T23:45:22.817Z,65.77
2017-09-30T23:47:51.367Z,68.03
2017-09-30T23:50:19.975Z,65.85
2017-09-30T23:52:48.560Z,65.50
2017-09-30T23:55:17.148Z,67.18
2017-09-30T23:57:45.798Z,66.34
